Time;durP1;ratioP1;P1;durP2;ratioP2;P2;SDS_P1;SDS_P2;PMS_P1;PMS_P2;Temp;Humidity;BMP_temperature;BMP_pressure;BME280_temperature;BME280_humidity;BME280_pressure;Samples;Min_cycle;Max_cycle;Signal;HPM_P1;HPM_P2
2021/06/22 00:00:30;;;;;;;11.05;9.07;;;588.90;2432.00;;;;;;5074704;28;20021;-73
2021/06/22 00:02:56;;;;;;;11.10;8.98;;;588.90;2432.00;;;;;;5074368;28;20028;-73
2021/06/22 00:05:23;;;;;;;13.57;9.30;;;588.80;2432.00;;;;;;5074592;28;20551;-72
2021/06/22 00:07:51;;;;;;;11.35;8.95;;;588.80;2432.00;;;;;;5074203;28;20494;-72
2021/06/22 00:10:19;;;;;;;11.35;9.20;;;588.80;2432.00;;;;;;5068537;28;20041;-73
2021/06/22 00:12:46;;;;;;;12.52;9.25;;;588.80;2432.00;;;;;;5066699;28;20457;-71
2021/06/22 00:15:15;;;;;;;11.35;9.57;;;564.10;2432.00;;;;;;5074389;28;20017;-73
2021/06/22 00:17:41;;;;;;;11.93;9.00;;;564.10;2432.00;;;;;;5074376;28;20016;-74
2021/06/22 00:20:09;;;;;;;12.50;10.00;;;564.10;2432.00;;;;;;5074109;28;20028;-75
2021/06/22 00:22:36;;;;;;;11.30;10.10;;;564.10;2432.00;;;;;;5074316;28;20047;-71
2021/06/22 00:25:04;;;;;;;13.57;9.80;;;564.10;2432.00;;;;;;5074132;28;20021;-74
2021/06/22 00:27:29;;;;;;;10.88;9.30;;;564.00;2432.00;;;;;;5074151;28;20505;-73
2021/06/22 00:29:55;;;;;;;11.77;9.35;;;563.90;2432.00;;;;;;5073338;28;20024;-73
2021/06/22 00:32:21;;;;;;;10.82;8.90;;;563.90;2432.00;;;;;;5073975;28;20158;-73
2021/06/22 00:34:47;;;;;;;12.20;8.57;;;563.90;2432.00;;;;;;5074328;28;20025;-73
2021/06/22 00:37:17;;;;;;;13.02;9.10;;;563.80;2432.00;;;;;;5074020;28;20056;-74
2021/06/22 00:39:43;;;;;;;12.27;9.23;;;563.80;2432.00;;;;;;5074234;28;20029;-73
2021/06/22 00:42:10;;;;;;;11.05;9.10;;;563.80;2432.00;;;;;;5074188;28;20029;-73
2021/06/22 00:44:57;;;;;;;11.95;8.77;;;563.80;2432.00;;;;;;5073923;28;20108;-74
2021/06/22 00:47:25;;;;;;;11.85;8.88;;;563.70;2432.00;;;;;;5074045;28;20084;-74
2021/06/22 00:49:51;;;;;;;11.73;9.23;;;563.70;2432.00;;;;;;5074169;28;20024;-73
2021/06/22 00:52:21;;;;;;;12.90;9.02;;;563.70;2432.00;;;;;;5073480;28;20024;-74
2021/06/22 00:54:47;;;;;;;11.93;9.05;;;563.80;2432.00;;;;;;5073798;28;20180;-73
2021/06/22 00:57:14;;;;;;;11.10;9.32;;;563.70;2432.00;;;;;;5073425;28;20123;-72
2021/06/22 00:59:40;;;;;;;10.75;9.13;;;563.70;2432.00;;;;;;5073621;28;20029;-72
2021/06/22 01:02:06;;;;;;;13.45;9.00;;;563.70;2432.00;;;;;;5073673;28;20023;-71
2021/06/22 01:04:34;;;;;;;10.85;9.20;;;563.60;2432.00;;;;;;5073450;28;20035;-72
2021/06/22 01:07:02;;;;;;;12.73;9.82;;;563.50;2432.00;;;;;;5073264;28;20535;-72
2021/06/22 01:09:29;;;;;;;11.02;9.40;;;563.50;2432.00;;;;;;5073232;28;20029;-72
2021/06/22 01:11:58;;;;;;;11.32;9.15;;;563.30;2432.00;;;;;;5059114;28;20499;-71
2021/06/22 01:14:25;;;;;;;13.65;10.23;;;563.20;2432.00;;;;;;5071640;28;20032;-73
2021/06/22 01:16:51;;;;;;;13.93;10.10;;;538.30;2406.40;;;;;;5073347;28;20498;-73
2021/06/22 01:19:17;;;;;;;12.93;10.07;;;538.30;2406.40;;;;;;5073387;28;20390;-72
2021/06/22 01:21:42;;;;;;;13.23;9.65;;;538.20;2406.40;;;;;;5073271;28;20032;-71
2021/06/22 01:24:14;;;;;;;14.63;9.35;;;538.10;2406.40;;;;;;5073154;28;20052;-72
2021/06/22 01:26:55;;;;;;;12.13;10.38;;;538.10;2406.40;;;;;;5059129;28;20039;-72
2021/06/22 01:29:21;;;;;;;12.68;10.07;;;538.00;2406.40;;;;;;5054945;28;20032;-72
2021/06/22 01:31:47;;;;;;;14.43;11.50;;;537.80;2406.40;;;;;;5072880;28;20049;-71
2021/06/22 01:34:13;;;;;;;15.45;11.88;;;537.70;2406.40;;;;;;5073000;28;20071;-73
2021/06/22 01:36:44;;;;;;;13.88;11.18;;;537.70;2406.40;;;;;;5072737;28;20021;-72
2021/06/22 01:39:12;;;;;;;15.50;11.32;;;537.60;2406.40;;;;;;5072982;28;20035;-72
2021/06/22 01:41:39;;;;;;;12.95;10.23;;;537.60;2406.40;;;;;;5072922;28;20044;-73
2021/06/22 01:44:05;;;;;;;14.02;10.98;;;537.80;2406.40;;;;;;5072726;28;20032;-73
2021/06/22 01:46:31;;;;;;;15.38;10.60;;;537.80;2406.40;;;;;;5072585;28;20099;-73
2021/06/22 01:48:57;;;;;;;13.73;11.15;;;537.80;2406.40;;;;;;5072894;28;20017;-73
2021/06/22 01:51:23;;;;;;;14.85;10.40;;;537.90;2406.40;;;;;;5072603;28;20499;-73
2021/06/22 01:53:56;;;;;;;11.40;9.95;;;537.90;2406.40;;;;;;5072502;28;20024;-73
2021/06/22 01:56:25;;;;;;;11.13;9.93;;;537.90;2406.40;;;;;;5072591;28;20024;-73
2021/06/22 01:58:51;;;;;;;11.93;9.82;;;538.00;2406.40;;;;;;5072343;28;20035;-73
2021/06/22 02:01:17;;;;;;;11.88;9.82;;;537.90;2406.40;;;;;;5072372;28;20413;-72
2021/06/22 02:03:43;;;;;;;11.18;9.50;;;538.00;2406.40;;;;;;5072304;28;20061;-71
2021/06/22 02:06:09;;;;;;;11.45;9.45;;;538.00;2406.40;;;;;;5072462;28;20101;-71
2021/06/22 02:08:35;;;;;;;12.75;9.43;;;538.00;2406.40;;;;;;5072210;28;20031;-72
2021/06/22 02:11:01;;;;;;;11.25;9.57;;;538.00;2406.40;;;;;;5072193;28;20033;-72
2021/06/22 02:13:28;;;;;;;12.45;9.45;;;538.00;2406.40;;;;;;5072165;28;20471;-73
2021/06/22 02:15:54;;;;;;;12.43;10.10;;;538.00;2406.40;;;;;;5071916;28;20021;-74
2021/06/22 02:18:20;;;;;;;11.18;9.38;;;538.00;2406.40;;;;;;5072233;28;20494;-73
2021/06/22 02:20:46;;;;;;;10.88;9.45;;;538.00;2406.40;;;;;;5071883;28;20033;-72
2021/06/22 02:23:12;;;;;;;12.65;9.32;;;538.00;2406.40;;;;;;5072077;28;20526;-72
2021/06/22 02:25:39;;;;;;;14.20;9.65;;;537.90;2406.40;;;;;;5072036;28;20394;-72
2021/06/22 02:28:09;;;;;;;10.40;9.30;;;537.90;2406.40;;;;;;5072020;28;20111;-72
2021/06/22 02:30:35;;;;;;;;;;;537.90;2406.40;;;;;;5072431;28;20024;-73
2021/06/22 02:33:02;;;;;;;10.80;8.88;;;538.00;2406.40;;;;;;5071846;28;19951;-72
2021/06/22 02:35:28;;;;;;;11.38;9.07;;;538.00;2406.40;;;;;;5071842;28;20563;-72
2021/06/22 02:37:53;;;;;;;10.45;8.82;;;538.00;2406.40;;;;;;5071791;28;20024;-72
2021/06/22 02:40:20;;;;;;;10.60;8.82;;;538.00;2406.40;;;;;;5071720;28;20103;-72
2021/06/22 02:42:47;;;;;;;9.48;8.48;;;538.00;2406.40;;;;;;5071597;28;20029;-72
2021/06/22 02:45:14;;;;;;;12.20;9.20;;;538.00;2406.40;;;;;;5071905;28;20028;-72
2021/06/22 02:47:40;;;;;;;13.65;8.90;;;538.00;2406.40;;;;;;5071795;28;20063;-73
2021/06/22 02:50:07;;;;;;;12.00;8.95;;;538.00;2406.40;;;;;;5071575;28;20020;-72
2021/06/22 02:52:32;;;;;;;12.50;8.93;;;538.00;2406.40;;;;;;5071469;28;20024;-72
2021/06/22 02:54:58;;;;;;;9.70;8.35;;;538.00;2406.40;;;;;;5071914;28;20032;-72
2021/06/22 02:57:24;;;;;;;11.35;8.80;;;538.00;2406.40;;;;;;5071597;28;20074;-74
2021/06/22 02:59:50;;;;;;;9.98;8.68;;;538.10;2406.40;;;;;;5071326;28;20057;-72
2021/06/22 03:02:15;;;;;;;10.00;8.13;;;538.10;2406.40;;;;;;5071615;28;20034;-72
2021/06/22 03:04:41;;;;;;;11.30;8.13;;;538.10;2406.40;;;;;;5071538;28;20510;-74
2021/06/22 03:07:07;;;;;;;9.75;8.00;;;538.10;2406.40;;;;;;5071224;28;20052;-74
2021/06/22 03:09:33;;;;;;;9.38;8.38;;;538.10;2406.40;;;;;;5071562;28;20034;-74
2021/06/22 03:11:59;;;;;;;12.90;8.30;;;538.10;2406.40;;;;;;5071281;28;20043;-72
2021/06/22 03:14:26;;;;;;;13.25;9.05;;;538.20;2406.40;;;;;;5071372;28;20035;-71
2021/06/22 03:16:52;;;;;;;9.82;8.65;;;538.20;2406.40;;;;;;5071197;28;20066;-73
2021/06/22 03:19:18;;;;;;;10.40;8.75;;;538.20;2406.40;;;;;;5071482;28;20032;-73
2021/06/22 03:21:44;;;;;;;10.27;8.70;;;538.30;2406.40;;;;;;5071336;28;20043;-73
2021/06/22 03:24:15;;;;;;;10.85;8.98;;;538.30;2406.40;;;;;;5071162;28;20493;-73
2021/06/22 03:26:41;;;;;;;10.65;9.18;;;538.50;2406.40;;;;;;5071311;28;20033;-72
2021/06/22 03:29:08;;;;;;;12.80;9.20;;;538.50;2406.40;;;;;;5071445;28;20027;-74
2021/06/22 03:31:34;;;;;;;10.35;9.23;;;538.50;2406.40;;;;;;5069539;28;20501;-73
2021/06/22 03:34:00;;;;;;;12.57;9.20;;;563.20;2432.00;;;;;;5071292;28;20112;-73
2021/06/22 03:36:26;;;;;;;10.48;8.40;;;563.30;2432.00;;;;;;5071006;28;20091;-73
2021/06/22 03:38:52;;;;;;;9.05;7.88;;;563.40;2432.00;;;;;;5071296;28;20130;-72
2021/06/22 03:41:18;;;;;;;29.25;21.33;;;563.40;2432.00;;;;;;5071117;28;20502;-72
2021/06/22 03:43:44;;;;;;;15.40;12.43;;;563.50;2432.00;;;;;;5071179;28;20060;-72
2021/06/22 03:46:10;;;;;;;13.13;9.50;;;563.60;2432.00;;;;;;5070955;28;20033;-72
2021/06/22 03:48:36;;;;;;;11.50;8.70;;;563.70;2432.00;;;;;;5064345;28;20031;-72
2021/06/22 03:51:02;;;;;;;11.50;8.18;;;563.80;2432.00;;;;;;5071094;28;20364;-72
2021/06/22 03:53:28;;;;;;;11.20;8.20;;;563.80;2432.00;;;;;;5071105;28;20381;-72
2021/06/22 03:55:54;;;;;;;10.52;8.25;;;563.90;2432.00;;;;;;5071010;28;20013;-72
2021/06/22 03:58:20;;;;;;;9.70;7.72;;;564.00;2432.00;;;;;;5070811;28;20017;-72
2021/06/22 04:00:46;;;;;;;10.82;7.95;;;564.10;2432.00;;;;;;5070877;28;20028;-72
2021/06/22 04:03:15;;;;;;;10.73;7.85;;;588.80;2432.00;;;;;;5053165;28;20390;-72
2021/06/22 04:05:41;;;;;;;9.48;8.07;;;589.00;2432.00;;;;;;5073691;28;20158;-72
2021/06/22 04:08:07;;;;;;;10.38;8.10;;;589.00;2432.00;;;;;;5074164;28;20107;-72
2021/06/22 04:10:33;;;;;;;12.98;7.80;;;589.00;2432.00;;;;;;5074360;28;20040;-74
2021/06/22 04:12:59;;;;;;;11.48;8.00;;;589.20;2432.00;;;;;;5074411;28;20025;-72
2021/06/22 04:15:25;;;;;;;10.77;8.63;;;589.40;2432.00;;;;;;5074351;28;20021;-72
2021/06/22 04:17:51;;;;;;;11.52;8.57;;;589.60;2432.00;;;;;;5074416;28;20109;-72
2021/06/22 04:20:17;;;;;;;12.73;8.52;;;589.60;2432.00;;;;;;5056271;28;20119;-73
2021/06/22 04:22:44;;;;;;;14.07;9.13;;;589.70;2432.00;;;;;;5074198;28;20027;-71
2021/06/22 04:25:10;;;;;;;13.15;9.27;;;589.70;2432.00;;;;;;5074285;28;20028;-72
2021/06/22 04:27:36;;;;;;;13.23;9.73;;;614.40;2432.00;;;;;;5074072;28;20040;-72
2021/06/22 04:30:04;;;;;;;12.57;9.55;;;614.50;2432.00;;;;;;5074168;28;20429;-72
2021/06/22 04:32:30;;;;;;;12.05;9.82;;;614.50;2432.00;;;;;;5073936;28;20037;-72
2021/06/22 04:34:55;;;;;;;11.43;9.73;;;614.50;2432.00;;;;;;5074212;28;20017;-73
2021/06/22 04:37:21;;;;;;;11.40;9.98;;;614.60;2432.00;;;;;;5056128;28;20495;-72
2021/06/22 04:39:47;;;;;;;13.80;9.68;;;614.50;2432.00;;;;;;5073849;28;20387;-72
2021/06/22 04:42:13;;;;;;;13.38;9.25;;;589.70;2432.00;;;;;;5074049;28;20025;-73
2021/06/22 04:44:39;;;;;;;11.13;9.63;;;614.40;2432.00;;;;;;5073802;28;20029;-72
2021/06/22 04:47:04;;;;;;;11.23;9.00;;;614.60;2432.00;;;;;;5073873;28;20031;-72
2021/06/22 04:49:30;;;;;;;12.02;9.20;;;614.80;2432.00;;;;;;5073800;28;20054;-72
2021/06/22 04:51:56;;;;;;;11.32;9.23;;;614.80;2432.00;;;;;;5064602;28;20020;-72
2021/06/22 04:54:23;;;;;;;11.05;9.45;;;614.90;2432.00;;;;;;5073625;28;20017;-74
2021/06/22 04:56:49;;;;;;;12.88;9.52;;;614.90;2432.00;;;;;;5073565;28;20430;-72
2021/06/22 04:59:15;;;;;;;13.77;9.93;;;614.90;2432.00;;;;;;5069929;28;20275;-78
2021/06/22 05:01:40;;;;;;;17.30;10.30;;;614.80;2432.00;;;;;;5069942;28;20137;-75
2021/06/22 05:04:06;;;;;;;12.30;11.00;;;614.70;2432.00;;;;;;5073538;28;20123;-72
2021/06/22 05:06:32;;;;;;;14.15;11.18;;;614.80;2432.00;;;;;;5073425;28;20108;-72
2021/06/22 05:08:58;;;;;;;13.13;10.73;;;615.10;2432.00;;;;;;5073646;28;20162;-72
2021/06/22 05:11:24;;;;;;;13.45;11.27;;;615.30;2432.00;;;;;;5073172;28;20202;-79
2021/06/22 05:13:51;;;;;;;15.18;11.05;;;615.20;2432.00;;;;;;5073379;28;20031;-77
2021/06/22 05:16:17;;;;;;;12.80;10.38;;;615.30;2432.00;;;;;;5072887;28;20017;-78
2021/06/22 05:18:45;;;;;;;13.73;9.23;;;640.00;2432.00;;;;;;5073115;28;20038;-72
2021/06/22 05:21:11;;;;;;;12.23;9.27;;;615.30;2432.00;;;;;;5073085;28;20035;-78
2021/06/22 05:23:37;;;;;;;11.18;8.70;;;615.30;2432.00;;;;;;5072945;28;20031;-71
2021/06/22 05:26:03;;;;;;;11.13;8.73;;;640.20;2432.00;;;;;;5068791;28;20017;-72
2021/06/22 05:28:28;;;;;;;10.63;8.45;;;640.40;2432.00;;;;;;5073573;28;20133;-77
2021/06/22 05:30:55;;;;;;;10.18;8.10;;;640.50;2432.00;;;;;;5073622;28;20028;-77
2021/06/22 05:33:21;;;;;;;9.73;7.20;;;640.60;2432.00;;;;;;5073467;28;20060;-72
2021/06/22 05:35:47;;;;;;;10.95;7.03;;;665.60;2432.00;;;;;;5069651;28;20033;-72
2021/06/22 05:38:12;;;;;;;10.25;7.30;;;665.90;2432.00;;;;;;5073465;28;20036;-72
2021/06/22 05:40:38;;;;;;;10.60;6.97;;;666.00;2432.00;;;;;;5072969;28;20090;-82
2021/06/22 05:43:04;;;;;;;11.32;7.25;;;666.30;2432.00;;;;;;5055396;28;20084;-82
2021/06/22 05:45:30;;;;;;;9.25;6.75;;;666.40;2432.00;;;;;;5073453;28;20028;-76
2021/06/22 05:47:56;;;;;;;10.15;7.40;;;691.20;2432.00;;;;;;5073024;28;20068;-81
2021/06/22 05:50:22;;;;;;;7.80;6.68;;;691.20;2432.00;;;;;;5073326;28;20044;-72
2021/06/22 05:52:49;;;;;;;10.23;6.95;;;691.40;2432.00;;;;;;5073240;28;20070;-73
2021/06/22 05:55:20;;;;;;;9.38;7.20;;;691.60;2432.00;;;;;;5073483;28;20055;-74
2021/06/22 05:57:50;;;;;;;10.45;6.82;;;691.70;2432.00;;;;;;5073353;28;20501;-77
2021/06/22 06:00:18;;;;;;;10.38;7.00;;;691.90;2432.00;;;;;;5072377;28;20403;-78
2021/06/22 06:02:44;;;;;;;13.50;7.32;;;691.90;2432.00;;;;;;5072451;28;20033;-82
2021/06/22 06:05:11;;;;;;;11.45;7.55;;;691.70;2432.00;;;;;;5072837;28;20024;-78
2021/06/22 06:07:37;;;;;;;11.75;7.57;;;691.60;2432.00;;;;;;5055235;28;20103;-80
2021/06/22 06:10:05;;;;;;;14.57;7.90;;;691.90;2432.00;;;;;;5072728;28;20033;-79
2021/06/22 06:12:30;;;;;;;18.13;9.50;;;691.80;2432.00;;;;;;5072970;28;20020;-74
2021/06/22 06:14:56;;;;;;;9.20;7.05;;;716.90;2432.00;;;;;;5072442;28;20035;-83
2021/06/22 06:17:22;;;;;;;8.85;6.93;;;691.90;2432.00;;;;;;5072272;28;20021;-75
2021/06/22 06:19:48;;;;;;;9.07;7.45;;;691.90;2432.00;;;;;;5071871;28;20487;-77
2021/06/22 06:22:14;;;;;;;9.38;7.93;;;691.90;2432.00;;;;;;5071733;28;20031;-79
2021/06/22 06:24:40;;;;;;;10.77;7.30;;;692.00;2432.00;;;;;;5071760;28;20032;-77
2021/06/22 06:27:15;;;;;;;8.07;7.15;;;716.80;2432.00;;;;;;5071377;28;20043;-73
2021/06/22 06:32:12;;;;;;;8.27;7.35;;;691.80;2432.00;;;;;;5071973;28;20017;-77
2021/06/22 06:34:38;;;;;;;9.68;7.40;;;691.60;2432.00;;;;;;5071498;28;20028;-79
2021/06/22 06:37:03;;;;;;;8.85;7.20;;;691.80;2432.00;;;;;;5072093;28;20033;-80
2021/06/22 06:39:29;;;;;;;9.32;7.20;;;716.80;2432.00;;;;;;5053946;28;20020;-79
2021/06/22 06:41:55;;;;;;;10.15;6.95;;;716.80;2432.00;;;;;;5053314;28;20398;-79
2021/06/22 06:44:21;;;;;;;8.02;6.97;;;717.10;2432.00;;;;;;5071627;28;20461;-83
2021/06/22 06:46:46;;;;;;;8.10;6.75;;;692.10;2432.00;;;;;;5071341;28;20471;-78
2021/06/22 06:49:12;;;;;;;8.18;6.90;;;716.90;2432.00;;;;;;5071713;28;20394;-78
2021/06/22 06:51:38;;;;;;;13.00;7.25;;;716.90;2432.00;;;;;;5071305;28;20036;-78
2021/06/22 06:54:04;;;;;;;8.20;7.03;;;717.10;2432.00;;;;;;5071537;28;20021;-73
2021/06/22 06:56:30;;;;;;;8.82;6.95;;;717.40;2432.00;;;;;;5071019;28;20059;-73
2021/06/22 06:58:55;;;;;;;10.27;7.53;;;742.40;2432.00;;;;;;5071509;28;20067;-78
2021/06/22 07:01:21;;;;;;;9.15;7.50;;;717.40;2432.00;;;;;;5071382;28;20475;-83
2021/06/22 07:03:48;;;;;;;10.02;7.43;;;717.50;2432.00;;;;;;5071705;28;20024;-83
2021/06/22 07:06:14;;;;;;;11.45;7.55;;;717.40;2432.00;;;;;;5071923;28;20024;-82
2021/06/22 07:08:40;;;;;;;9.25;7.50;;;742.40;2432.00;;;;;;5072021;28;20100;-82
2021/06/22 07:11:07;;;;;;;10.35;7.65;;;742.60;2432.00;;;;;;5065346;28;20384;-76
2021/06/22 07:13:32;;;;;;;11.55;7.95;;;743.00;2432.00;;;;;;5053191;28;20104;-78
2021/06/22 07:15:58;;;;;;;9.07;7.43;;;742.60;2432.00;;;;;;5060016;28;20100;-79
2021/06/22 07:18:25;;;;;;;9.02;7.40;;;742.70;2432.00;;;;;;5069689;28;20033;-82
2021/06/22 07:20:51;;;;;;;10.43;6.93;;;742.60;2432.00;;;;;;5071085;28;20016;-76
2021/06/22 07:23:16;;;;;;;10.43;7.20;;;742.60;2432.00;;;;;;5067141;28;20159;-80
2021/06/22 07:25:42;;;;;;;13.27;6.95;;;742.80;2432.00;;;;;;5062979;28;20032;-73
2021/06/22 07:28:08;;;;;;;11.57;7.28;;;742.80;2432.00;;;;;;5051698;28;20025;-75
2021/06/22 07:30:34;;;;;;;9.18;7.10;;;743.00;2432.00;;;;;;5064172;28;20021;-80
2021/06/22 07:32:59;;;;;;;12.85;7.13;;;742.80;2432.00;;;;;;5061903;28;20021;-83
2021/06/22 07:35:29;;;;;;;12.52;7.07;;;742.70;2432.00;;;;;;5053072;28;20100;-74
2021/06/22 07:37:55;;;;;;;9.82;6.90;;;742.90;2432.00;;;;;;5071654;28;20486;-76
2021/06/22 07:40:22;;;;;;;9.27;7.10;;;742.80;2432.00;;;;;;5073925;28;20033;-76
2021/06/22 07:42:48;;;;;;;9.32;7.15;;;743.00;2432.00;;;;;;5057507;28;20025;-72
2021/06/22 07:45:14;;;;;;;13.77;7.55;;;743.20;2432.00;;;;;;5063996;28;20146;-73
2021/06/22 07:47:40;;;;;;;9.65;7.03;;;743.20;2432.00;;;;;;5058598;28;20120;-82
2021/06/22 07:50:08;;;;;;;10.35;6.93;;;743.30;2432.00;;;;;;5057140;28;20112;-73
2021/06/22 07:52:33;;;;;;;10.82;7.30;;;743.10;2432.00;;;;;;5070334;28;20024;-76
2021/06/22 07:54:59;;;;;;;10.07;6.90;;;743.30;2432.00;;;;;;5074952;28;20025;-75
2021/06/22 07:57:25;;;;;;;9.30;7.00;;;768.20;2432.00;;;;;;5074842;28;20052;-72
2021/06/22 07:59:50;;;;;;;13.60;7.47;;;768.30;2432.00;;;;;;5074876;28;20047;-72
2021/06/22 08:02:16;;;;;;;9.43;7.22;;;768.90;2432.00;;;;;;5074980;28;20025;-80
2021/06/22 08:04:42;;;;;;;9.50;7.20;;;768.40;2432.00;;;;;;5074188;28;20054;-81
2021/06/22 08:07:08;;;;;;;11.77;6.70;;;768.50;2432.00;;;;;;5074613;28;20051;-71
2021/06/22 08:09:33;;;;;;;10.38;6.72;;;768.40;2432.00;;;;;;5066375;28;20043;-77
2021/06/22 08:12:00;;;;;;;13.05;7.20;;;793.90;2432.00;;;;;;5074374;28;20067;-72
2021/06/22 08:14:26;;;;;;;13.68;7.13;;;768.60;2432.00;;;;;;5075023;28;20502;-73
2021/06/22 08:16:51;;;;;;;11.18;7.20;;;768.60;2432.00;;;;;;5074675;28;20044;-76
2021/06/22 08:19:18;;;;;;;12.95;7.10;;;768.40;2432.00;;;;;;5066200;28;20025;-77
2021/06/22 08:21:43;;;;;;;14.43;6.97;;;768.70;2432.00;;;;;;5074420;28;20063;-77
2021/06/22 08:24:09;;;;;;;12.18;7.50;;;793.80;2432.00;;;;;;5059201;28;20474;-77
2021/06/22 08:26:35;;;;;;;13.05;7.30;;;794.20;2432.00;;;;;;5054396;28;20029;-80
2021/06/22 08:29:02;;;;;;;15.20;6.97;;;794.50;2432.00;;;;;;5055851;28;20044;-77
2021/06/22 08:31:28;;;;;;;12.52;6.38;;;794.50;2432.00;;;;;;5054898;28;20025;-78
2021/06/22 08:33:53;;;;;;;16.15;7.05;;;819.60;2432.00;;;;;;5055765;28;20013;-74
2021/06/22 08:36:19;;;;;;;11.40;6.18;;;819.40;2432.00;;;;;;5056144;28;20479;-71
2021/06/22 08:38:45;;;;;;;13.88;6.80;;;819.40;2432.00;;;;;;5062463;28;20040;-72
2021/06/22 08:41:13;;;;;;;12.05;6.32;;;794.40;2432.00;;;;;;5053968;28;20491;-74
2021/06/22 08:43:40;;;;;;;13.48;6.68;;;819.20;2432.00;;;;;;5055962;28;20051;-72
2021/06/22 08:46:09;;;;;;;15.15;6.57;;;819.60;2432.00;;;;;;5061554;28;20112;-72
2021/06/22 08:48:35;;;;;;;13.70;6.90;;;819.90;2432.00;;;;;;5074204;28;20033;-73
2021/06/22 08:51:00;;;;;;;13.75;6.47;;;819.70;2432.00;;;;;;5073556;28;20034;-70
2021/06/22 08:53:27;;;;;;;13.77;6.50;;;819.60;2432.00;;;;;;5074132;28;20017;-73
2021/06/22 08:55:53;;;;;;;14.68;6.50;;;820.10;2432.00;;;;;;5073700;28;20067;-73
2021/06/22 08:58:19;;;;;;;14.73;6.68;;;844.90;2432.00;;;;;;5073555;28;20499;-73
2021/06/22 09:00:47;;;;;;;15.40;7.28;;;845.20;2432.00;;;;;;5073257;28;20025;-72
2021/06/22 09:03:16;;;;;;;18.75;6.90;;;845.40;2432.00;;;;;;5073324;28;20103;-73
2021/06/22 09:05:50;;;;;;;13.05;6.93;;;845.70;2432.00;;;;;;5074267;28;20016;-74
2021/06/22 09:08:23;;;;;;;13.55;6.90;;;845.30;2432.00;;;;;;5072980;28;20032;-75
2021/06/22 09:10:52;;;;;;;18.30;7.43;;;845.40;2432.00;;;;;;5073203;28;20028;-72
2021/06/22 09:13:24;;;;;;;15.80;7.20;;;845.20;2432.00;;;;;;5068737;28;20379;-72
2021/06/22 09:15:52;;;;;;;18.77;7.38;;;845.30;2432.00;;;;;;5063379;28;20013;-72
2021/06/22 09:18:28;;;;;;;15.82;6.40;;;845.40;2432.00;;;;;;5073057;28;20016;-71
2021/06/22 09:20:56;;;;;;;19.35;6.50;;;845.40;2432.00;;;;;;5071335;28;20020;-71
2021/06/22 09:23:33;;;;;;;17.80;6.60;;;870.60;2432.00;;;;;;5063596;28;20048;-71
2021/06/22 09:26:00;;;;;;;17.30;6.10;;;;;;;;;;5071263;28;20020;-80
2021/06/22 09:28:30;;;;;;;14.60;6.40;;;;;;;;;;5073902;28;20749;-80
2021/06/22 09:30:58;;;;;;;22.00;6.30;;;;;;;;;;5053341;28;20698;-81
2021/06/22 09:33:24;;;;;;;17.02;6.47;;;;;;;;;;5068445;28;20021;-72
2021/06/22 09:35:56;;;;;;;18.77;6.50;;;;;;;;;;5066978;28;20165;-74
2021/06/22 09:38:22;;;;;;;22.38;7.00;;;871.00;2432.00;;;;;;5071805;28;20052;-73
2021/06/22 09:41:01;;;;;;;18.48;7.03;;;;;;;;;;5073151;28;20055;-73
2021/06/22 09:43:45;;;;;;;18.48;7.13;;;896.30;2432.00;;;;;;5073478;28;20035;-74
2021/06/22 09:46:11;;;;;;;18.58;6.45;;;896.10;2432.00;;;;;;5082313;28;20036;-78
2021/06/22 09:48:52;;;;;;;17.63;6.20;;;896.00;2432.00;;;;;;5076351;28;20090;-77
2021/06/22 09:51:18;;;;;;;17.55;6.40;;;896.30;2432.00;;;;;;5071366;28;20526;-76
2021/06/22 09:53:44;;;;;;;17.45;6.65;;;896.80;2432.00;;;;;;5068394;28;20592;-76
2021/06/22 09:56:25;;;;;;;18.10;6.80;;;896.50;2432.00;;;;;;5068115;28;20037;-74
2021/06/22 09:58:51;;;;;;;18.77;7.00;;;896.30;2432.00;;;;;;5074807;28;20028;-77
2021/06/22 10:01:25;;;;;;;20.30;6.47;;;896.10;2432.00;;;;;;5073096;28;20024;-79
2021/06/22 10:03:51;;;;;;;16.02;6.25;;;;;;;;;;5079985;28;20497;-75
2021/06/22 10:06:17;;;;;;;19.40;6.30;;;896.30;2432.00;;;;;;5078172;28;20047;-75
2021/06/22 10:08:54;;;;;;;17.33;6.00;;;896.80;2406.40;;;;;;5077201;28;20044;-79
2021/06/22 10:11:35;;;;;;;16.92;6.05;;;896.70;2380.80;;;;;;5071353;28;20032;-74
2021/06/22 10:14:03;;;;;;;20.42;6.28;;;896.70;2355.20;;;;;;5071801;28;20024;-74
2021/06/22 10:16:32;;;;;;;19.02;6.43;;;896.40;2406.40;;;;;;5067624;28;20141;-77
2021/06/22 10:18:59;;;;;;;18.88;6.50;;;896.70;2380.80;;;;;;5067502;28;20096;-82
2021/06/22 10:21:26;;;;;;;20.10;6.50;;;896.40;2380.80;;;;;;5067994;28;20021;-75
2021/06/22 10:23:52;;;;;;;18.60;6.85;;;896.40;2355.20;;;;;;5067077;28;20112;-78
2021/06/22 10:26:19;;;;;;;19.55;6.57;;;896.70;2355.20;;;;;;5072306;28;20100;-79
2021/06/22 10:28:46;;;;;;;19.63;6.38;;;896.60;2329.60;;;;;;5072218;28;20455;-74
2021/06/22 10:31:12;;;;;;;20.00;6.20;;;896.80;2304.00;;;;;;5071705;28;20108;-79
2021/06/22 10:33:40;;;;;;;25.17;6.88;;;896.90;2304.00;;;;;;5071725;28;20497;-74
2021/06/22 10:36:07;;;;;;;19.60;6.53;;;921.70;2278.40;;;;;;5053114;28;20383;-75
2021/06/22 10:38:37;;;;;;;27.10;6.43;;;922.00;2278.40;;;;;;5071331;28;20024;-75
2021/06/22 10:41:03;;;;;;;;;;;896.80;2278.40;;;;;;5071410;28;20429;-74
2021/06/22 10:43:37;;;;;;;24.27;6.07;;;896.80;2304.00;;;;;;5071551;28;20027;-73
2021/06/22 10:46:08;;;;;;;17.48;6.25;;;921.80;2278.40;;;;;;5071174;28;20024;-72
2021/06/22 10:48:46;;;;;;;23.95;6.35;;;922.10;2252.80;;;;;;5071044;28;20031;-73
2021/06/22 10:51:28;;;;;;;24.88;6.55;;;922.40;2227.20;;;;;;5071011;28;20023;-79
2021/06/22 10:53:53;;;;;;;22.98;6.30;;;922.30;2227.20;;;;;;5069770;28;20066;-75
2021/06/22 10:56:21;;;;;;;26.35;7.13;;;921.90;2201.60;;;;;;5053185;28;20025;-75
2021/06/22 10:59:11;;;;;;;22.67;6.20;;;922.10;2227.20;;;;;;5071579;28;20070;-75
2021/06/22 11:01:56;;;;;;;23.65;5.93;;;922.40;2201.60;;;;;;5070485;28;20104;-76
2021/06/22 11:04:23;;;;;;;22.23;6.30;;;921.90;2176.00;;;;;;5071689;28;20410;-75
2021/06/22 11:07:01;;;;;;;24.40;6.35;;;921.60;2227.20;;;;;;5071401;28;20031;-75
2021/06/22 11:09:27;;;;;;;19.98;5.90;;;922.10;2201.60;;;;;;5071665;28;20020;-76
2021/06/22 11:12:21;;;;;;;18.77;6.20;;;947.20;2201.60;;;;;;5071376;28;20032;-80
2021/06/22 11:14:58;;;;;;;22.88;6.20;;;947.50;2176.00;;;;;;5074470;28;20021;-76
2021/06/22 11:17:42;;;;;;;22.83;6.22;;;947.90;2176.00;;;;;;5075662;28;20039;-75
2021/06/22 11:20:17;;;;;;;22.63;6.57;;;947.80;2124.80;;;;;;5075165;28;20012;-75
2021/06/22 11:23:02;;;;;;;21.58;6.13;;;947.40;2150.40;;;;;;5073206;28;20020;-75
2021/06/22 11:26:13;;;;;;;20.02;6.40;;;947.50;2124.80;;;;;;5070590;28;20104;-78
2021/06/22 11:28:52;;;;;;;23.63;6.47;;;922.50;2150.40;;;;;;5071367;28;20483;-80
2021/06/22 11:31:32;;;;;;;27.02;7.00;;;947.50;2124.80;;;;;;5075404;28;20025;-78
2021/06/22 11:34:07;;;;;;;22.85;6.13;;;947.70;2124.80;;;;;;5075467;28;20020;-76
2021/06/22 11:36:35;;;;;;;20.13;5.88;;;947.80;2099.20;;;;;;5075512;28;20035;-75
2021/06/22 11:39:18;;;;;;;21.92;5.85;;;947.90;2073.60;;;;;;5075489;28;20478;-77
2021/06/22 11:42:11;;;;;;;24.35;6.47;;;947.40;2073.60;;;;;;5075639;28;20036;-80
2021/06/22 11:44:44;;;;;;;20.15;6.00;;;947.80;2048.00;;;;;;5057309;28;20021;-75
2021/06/22 11:47:13;;;;;;;24.55;6.03;;;947.70;2048.00;;;;;;5075036;28;20020;-76
2021/06/22 11:49:45;;;;;;;24.80;6.30;;;948.00;2048.00;;;;;;5056967;28;20025;-75
2021/06/22 11:52:16;;;;;;;24.63;6.35;;;948.10;2022.40;;;;;;5065305;28;20039;-76
2021/06/22 11:54:48;;;;;;;21.33;5.80;;;948.10;2022.40;;;;;;5069389;28;20023;-77
2021/06/22 11:57:27;;;;;;;21.63;6.05;;;948.10;2022.40;;;;;;5072015;28;20429;-77
2021/06/22 11:59:54;;;;;;;22.47;6.07;;;947.70;2022.40;;;;;;5074789;28;20115;-77
2021/06/22 12:02:20;;;;;;;22.27;6.53;;;947.40;2048.00;;;;;;5074849;28;20020;-75
2021/06/22 12:04:47;;;;;;;17.30;5.85;;;947.40;2073.60;;;;;;5074493;28;20105;-75
2021/06/22 12:07:14;;;;;;;25.83;6.53;;;947.40;2073.60;;;;;;5074797;28;20073;-75
2021/06/22 12:09:40;;;;;;;25.30;5.80;;;947.50;2022.40;;;;;;5074650;28;20025;-75
2021/06/22 12:12:07;;;;;;;21.80;6.18;;;947.80;2022.40;;;;;;5074389;28;20024;-76
2021/06/22 12:14:33;;;;;;;24.17;5.78;;;947.90;1996.80;;;;;;5056483;28;20056;-75
2021/06/22 12:16:59;;;;;;;20.63;6.25;;;948.10;1945.60;;;;;;5074653;28;20021;-75